createdAt,value
2023-03-15T00:01:07.239Z,9.30
2023-03-15T00:12:38.341Z,8.80
2023-03-15T00:15:07.951Z,8.00
2023-03-15T00:17:39.909Z,4.00
2023-03-15T00:20:09.616Z,6.90
2023-03-15T00:22:38.818Z,4.80
2023-03-15T00:25:08.526Z,6.40
2023-03-15T00:27:37.732Z,3.90
2023-03-15T00:30:07.105Z,5.00
2023-03-15T00:32:35.960Z,4.20
2023-03-15T00:35:08.489Z,5.80
2023-03-15T00:37:38.198Z,7.80
2023-03-15T00:40:07.953Z,9.20
2023-03-15T00:42:36.477Z,5.40
2023-03-15T00:45:05.894Z,7.20
2023-03-15T00:47:34.824Z,9.20
2023-03-15T00:50:03.710Z,6.00
2023-03-15T00:52:36.291Z,6.60
2023-03-15T00:55:05.438Z,5.80
2023-03-15T00:57:34.972Z,9.50
2023-03-15T01:00:05.292Z,1.80
2023-03-15T01:02:35.431Z,8.60
2023-03-15T01:05:08.911Z,6.50
2023-03-15T01:07:37.667Z,4.40
2023-03-15T01:10:07.196Z,6.90
2023-03-15T01:12:36.203Z,4.70
2023-03-15T01:15:06.564Z,4.70
2023-03-15T01:17:35.461Z,7.80
2023-03-15T01:20:05.827Z,6.00
2023-03-15T01:22:34.737Z,1.50
2023-03-15T01:25:04.018Z,5.60
2023-03-15T01:27:32.809Z,7.70
2023-03-15T01:30:02.829Z,5.00
2023-03-15T01:32:31.527Z,5.90
2023-03-15T01:35:00.200Z,6.10
2023-03-15T01:37:28.981Z,6.70
2023-03-15T01:39:57.720Z,5.90
2023-03-15T01:42:26.165Z,4.00
2023-03-15T01:44:56.786Z,7.30
2023-03-15T01:47:26.416Z,4.30
2023-03-15T01:50:03.479Z,7.50
2023-03-15T01:52:34.413Z,4.60
2023-03-15T01:55:13.343Z,9.60
2023-03-15T01:57:56.482Z,4.80
2023-03-15T02:00:28.027Z,8.10
2023-03-15T02:03:00.945Z,4.90
2023-03-15T02:05:37.692Z,7.70
2023-03-15T02:08:08.970Z,8.30
2023-03-15T02:10:45.283Z,8.10
2023-03-15T02:13:17.261Z,4.80
2023-03-15T02:15:46.972Z,3.20
2023-03-15T02:18:21.685Z,6.50
2023-03-15T02:21:02.447Z,5.80
2023-03-15T02:23:32.255Z,5.80
2023-03-15T02:26:12.925Z,9.50
2023-03-15T02:28:42.020Z,7.80
2023-03-15T02:31:10.908Z,2.80
2023-03-15T02:33:44.105Z,5.80
2023-03-15T02:36:12.355Z,6.70
2023-03-15T02:38:40.651Z,5.80
2023-03-15T02:41:09.136Z,5.30
2023-03-15T02:43:37.210Z,6.60
2023-03-15T02:46:05.634Z,5.70
2023-03-15T02:48:35.294Z,6.70
2023-03-15T02:51:04.699Z,4.90
2023-03-15T02:53:33.082Z,4.80
2023-03-15T02:56:01.314Z,8.60
2023-03-15T02:58:32.601Z,7.90
2023-03-15T03:01:02.352Z,4.60
2023-03-15T03:03:31.007Z,5.80
2023-03-15T03:06:02.143Z,4.60
2023-03-15T03:08:30.439Z,5.10
2023-03-15T03:10:58.690Z,7.90
2023-03-15T03:13:27.037Z,6.70
2023-03-15T03:15:58.929Z,7.90
2023-03-15T03:18:30.137Z,3.40
2023-03-15T03:20:59.781Z,7.00
2023-03-15T03:23:28.891Z,8.90
2023-03-15T03:25:58.792Z,6.70
2023-03-15T03:28:28.291Z,5.80
2023-03-15T03:30:57.228Z,8.20
2023-03-15T03:33:25.455Z,6.80
2023-03-15T03:35:54.524Z,2.50
2023-03-15T03:38:22.728Z,8.10
2023-03-15T03:40:55.197Z,8.30
2023-03-15T03:43:23.478Z,6.80
2023-03-15T03:45:51.940Z,4.30
2023-03-15T03:48:20.639Z,7.40
2023-03-15T03:50:48.708Z,7.40
2023-03-15T03:53:18.015Z,5.80
2023-03-15T03:55:46.937Z,5.70
2023-03-15T03:58:19.274Z,5.20
2023-03-15T04:00:54.434Z,7.40
2023-03-15T04:03:28.117Z,10.50
2023-03-15T04:06:06.016Z,4.50
2023-03-15T04:08:38.875Z,6.70
2023-03-15T04:11:08.621Z,5.40
2023-03-15T04:16:07.807Z,9.00
2023-03-15T04:18:47.873Z,8.20
2023-03-15T04:21:16.356Z,15.20
2023-03-15T04:23:46.565Z,13.80
2023-03-15T04:26:20.570Z,5.80
2023-03-15T04:29:12.741Z,5.30
2023-03-15T04:32:18.116Z,3.90
2023-03-15T04:34:52.306Z,6.50
2023-03-15T04:37:32.288Z,5.70
2023-03-15T04:40:24.221Z,8.00
2023-03-15T04:43:01.571Z,11.70
2023-03-15T04:45:38.539Z,7.10
2023-03-15T04:48:25.175Z,3.00
2023-03-15T04:51:19.254Z,7.10
2023-03-15T04:53:54.498Z,6.40
2023-03-15T04:56:51.809Z,6.30
2023-03-15T04:59:42.577Z,5.60
2023-03-15T05:02:13.646Z,13.00
2023-03-15T05:05:01.800Z,11.40
2023-03-15T05:07:48.548Z,5.50
2023-03-15T05:10:37.419Z,9.80
2023-03-15T05:13:25.692Z,13.10
2023-03-15T05:16:21.826Z,7.50
2023-03-15T05:19:07.433Z,12.30
2023-03-15T05:21:35.541Z,9.60
2023-03-15T05:24:39.098Z,20.00
2023-03-15T05:27:26.060Z,10.40
2023-03-15T05:30:16.237Z,8.70
2023-03-15T05:33:05.267Z,16.50
2023-03-15T05:36:05.319Z,11.10
2023-03-15T05:38:38.929Z,8.70
2023-03-15T05:41:21.502Z,10.40
2023-03-15T05:44:09.903Z,7.90
2023-03-15T05:46:56.340Z,9.80
2023-03-15T05:49:40.336Z,9.60
2023-03-15T05:52:40.642Z,8.10
2023-03-15T05:55:20.696Z,13.30
2023-03-15T05:58:17.903Z,14.70
2023-03-15T06:01:21.063Z,10.30
2023-03-15T06:04:01.847Z,18.10
2023-03-15T06:06:33.281Z,8.30
2023-03-15T06:09:02.226Z,8.00
2023-03-15T06:11:30.222Z,13.40
2023-03-15T06:13:59.027Z,11.30
2023-03-15T06:16:52.840Z,8.10
2023-03-15T06:19:21.529Z,8.60
2023-03-15T06:21:51.451Z,10.60
2023-03-15T06:24:32.939Z,10.70
2023-03-15T06:27:00.980Z,16.20
2023-03-15T06:29:29.277Z,19.60
2023-03-15T06:31:57.777Z,56.70
2023-03-15T06:34:26.199Z,44.20
2023-03-15T06:36:54.373Z,31.30
2023-03-15T06:39:23.675Z,19.60
2023-03-15T06:41:54.617Z,14.90
2023-03-15T06:46:57.444Z,17.70
2023-03-15T06:49:25.393Z,13.60
2023-03-15T06:51:53.692Z,12.90
2023-03-15T06:54:26.301Z,10.70
2023-03-15T06:56:55.084Z,16.90
2023-03-15T06:59:23.599Z,17.30
2023-03-15T07:01:51.685Z,14.10
2023-03-15T07:04:19.803Z,12.70
2023-03-15T07:06:47.682Z,9.10
2023-03-15T07:09:15.683Z,17.00
2023-03-15T07:11:43.718Z,22.00
2023-03-15T07:14:11.810Z,21.20
2023-03-15T07:16:39.956Z,27.30
2023-03-15T07:19:07.879Z,25.10
2023-03-15T07:21:35.853Z,26.40
2023-03-15T07:24:03.747Z,22.10
2023-03-15T07:26:31.552Z,25.10
2023-03-15T07:28:59.546Z,20.20
2023-03-15T07:31:27.354Z,17.40
2023-03-15T07:33:55.120Z,19.90
2023-03-15T07:36:23.258Z,21.70
2023-03-15T07:38:51.145Z,16.70
2023-03-15T07:41:19.106Z,12.50
2023-03-15T07:43:58.479Z,17.40
2023-03-15T07:46:26.685Z,9.80
2023-03-15T07:48:54.675Z,13.40
2023-03-15T07:51:22.718Z,15.70
2023-03-15T07:53:51.303Z,13.70
2023-03-15T07:56:19.838Z,18.30
2023-03-15T07:58:47.903Z,10.80
2023-03-15T08:01:15.733Z,10.10
2023-03-15T08:03:43.934Z,9.00
2023-03-15T08:06:11.784Z,10.50
2023-03-15T08:08:40.665Z,8.20
2023-03-15T08:11:08.637Z,9.50
2023-03-15T08:13:36.440Z,9.60
2023-03-15T08:16:04.481Z,6.90
2023-03-15T08:18:32.857Z,11.90
2023-03-15T08:21:01.224Z,6.50
2023-03-15T08:23:32.786Z,5.30
2023-03-15T08:26:01.599Z,9.80
2023-03-15T08:28:29.664Z,11.30
2023-03-15T08:30:57.565Z,10.60
2023-03-15T08:33:25.611Z,7.90
2023-03-15T08:35:54.096Z,9.00
2023-03-15T08:38:22.394Z,8.00
2023-03-15T08:40:55.377Z,9.20
2023-03-15T08:43:23.344Z,11.30
2023-03-15T08:46:00.581Z,9.40
2023-03-15T08:48:29.091Z,10.80
2023-03-15T08:50:57.647Z,7.70
2023-03-15T08:53:25.373Z,7.20
2023-03-15T08:55:53.492Z,8.30
2023-03-15T08:58:21.344Z,11.00
2023-03-15T09:00:50.155Z,13.90
2023-03-15T09:03:19.336Z,11.60
2023-03-15T09:05:47.252Z,7.60
2023-03-15T09:08:17.114Z,8.20
2023-03-15T09:10:45.254Z,4.50
2023-03-15T09:13:13.251Z,6.90
2023-03-15T09:15:43.278Z,5.30
2023-03-15T09:18:11.243Z,6.50
2023-03-15T09:20:42.373Z,7.00
2023-03-15T09:23:10.966Z,9.30
2023-03-15T09:25:41.766Z,4.40
2023-03-15T09:28:10.672Z,6.30
2023-03-15T09:30:42.392Z,3.60
2023-03-15T09:33:10.382Z,6.00
2023-03-15T09:35:38.251Z,7.90
2023-03-15T09:38:06.196Z,6.60
2023-03-15T09:40:38.497Z,5.80
2023-03-15T09:43:06.262Z,5.60
2023-03-15T09:45:55.944Z,12.30
2023-03-15T09:48:23.974Z,5.00
2023-03-15T09:50:54.143Z,14.40
2023-03-15T09:53:27.624Z,8.40
2023-03-15T09:55:55.450Z,7.20
2023-03-15T09:58:26.879Z,11.10
2023-03-15T10:00:57.214Z,11.20
2023-03-15T10:03:33.537Z,9.90
2023-03-15T10:06:27.417Z,5.20
2023-03-15T10:08:57.186Z,11.90
2023-03-15T10:11:44.074Z,7.00
2023-03-15T10:14:31.002Z,5.60
2023-03-15T10:16:58.776Z,5.30
2023-03-15T10:19:35.597Z,6.20
2023-03-15T10:22:22.046Z,9.30
2023-03-15T10:24:53.053Z,8.50
2023-03-15T10:27:24.321Z,7.80
2023-03-15T10:29:55.258Z,9.10
2023-03-15T10:32:31.554Z,13.40
2023-03-15T10:35:22.981Z,6.90
2023-03-15T10:37:53.948Z,6.50
2023-03-15T10:42:52.525Z,6.70
2023-03-15T10:45:24.782Z,5.90
2023-03-15T10:48:02.615Z,4.90
2023-03-15T10:50:32.468Z,8.70
2023-03-15T10:53:02.594Z,9.10
2023-03-15T10:55:53.449Z,10.20
2023-03-15T10:58:34.702Z,9.40
2023-03-15T11:03:44.658Z,7.00
2023-03-15T11:06:26.228Z,10.10
2023-03-15T11:09:08.399Z,7.30
2023-03-15T11:11:49.902Z,9.60
2023-03-15T11:15:04.253Z,7.90
2023-03-15T11:17:52.426Z,8.80
2023-03-15T11:20:35.625Z,9.40
2023-03-15T11:23:18.428Z,7.80
2023-03-15T11:26:06.938Z,4.90
2023-03-15T11:28:48.275Z,7.40
2023-03-15T11:31:36.790Z,7.50
2023-03-15T11:34:16.123Z,9.50
2023-03-15T11:36:55.680Z,9.60
2023-03-15T11:39:53.757Z,6.70
2023-03-15T11:42:27.917Z,5.60
2023-03-15T11:45:01.591Z,10.70
2023-03-15T11:47:45.787Z,6.70
2023-03-15T11:50:15.166Z,12.30
2023-03-15T11:52:43.639Z,9.50
2023-03-15T11:55:17.008Z,20.60
2023-03-15T11:57:45.748Z,20.60
2023-03-15T12:00:20.892Z,15.80
2023-03-15T12:02:51.064Z,7.90
2023-03-15T12:05:58.059Z,13.00
2023-03-15T12:08:44.999Z,11.40
2023-03-15T12:11:21.834Z,6.90
2023-03-15T12:14:01.927Z,14.30
2023-03-15T12:16:31.351Z,10.30
2023-03-15T12:19:01.818Z,14.10
2023-03-15T12:21:33.586Z,10.10
2023-03-15T12:24:21.585Z,12.20
2023-03-15T12:27:20.416Z,10.40
2023-03-15T12:29:50.039Z,13.80
2023-03-15T12:32:23.299Z,8.80
2023-03-15T12:35:08.901Z,11.90
2023-03-15T12:37:50.289Z,3.90
2023-03-15T12:40:19.101Z,7.30
2023-03-15T12:42:57.592Z,4.10
2023-03-15T12:45:28.667Z,20.10
2023-03-15T12:48:12.608Z,6.30
2023-03-15T12:50:53.803Z,9.00
2023-03-15T12:53:42.300Z,22.60
2023-03-15T12:56:29.731Z,12.90
2023-03-15T12:59:05.962Z,7.10
2023-03-15T13:01:34.736Z,8.00
2023-03-15T13:04:05.530Z,11.90
2023-03-15T13:06:45.351Z,18.60
2023-03-15T13:09:42.173Z,17.00
2023-03-15T13:12:41.865Z,15.90
2023-03-15T13:15:34.323Z,19.10
2023-03-15T13:18:17.762Z,18.80
2023-03-15T13:20:51.822Z,12.40
2023-03-15T13:23:26.290Z,12.40
2023-03-15T13:26:35.393Z,8.60
2023-03-15T13:29:15.103Z,14.10
2023-03-15T13:32:02.432Z,7.50
2023-03-15T13:34:41.531Z,12.50
2023-03-15T13:39:54.537Z,13.20
2023-03-15T13:42:25.801Z,11.20
2023-03-15T13:45:06.302Z,14.70
2023-03-15T13:47:34.646Z,12.60
2023-03-15T13:50:06.377Z,7.40
2023-03-15T13:52:34.519Z,14.90
2023-03-15T13:55:03.386Z,11.30
2023-03-15T13:57:31.414Z,13.00
2023-03-15T14:00:10.932Z,8.50
2023-03-15T14:03:02.117Z,11.50
2023-03-15T14:05:32.746Z,13.40
2023-03-15T14:08:03.255Z,19.00
2023-03-15T14:11:00.462Z,10.40
2023-03-15T14:13:32.124Z,12.30
2023-03-15T14:16:16.939Z,22.30
2023-03-15T14:18:45.322Z,29.50
2023-03-15T14:21:31.170Z,43.10
2023-03-15T14:24:05.916Z,30.30
2023-03-15T14:26:42.754Z,35.20
2023-03-15T14:29:31.467Z,18.90
2023-03-15T14:32:09.411Z,26.50
2023-03-15T14:34:56.214Z,12.40
2023-03-15T14:37:31.278Z,14.80
2023-03-15T14:40:20.932Z,12.90
2023-03-15T14:42:54.382Z,15.50
2023-03-15T14:45:27.487Z,11.90
2023-03-15T14:48:06.954Z,24.00
2023-03-15T14:50:44.112Z,17.20
2023-03-15T14:53:40.653Z,39.40
2023-03-15T14:56:11.549Z,30.70
2023-03-15T14:58:40.882Z,190.10
2023-03-15T15:01:18.403Z,129.80
2023-03-15T15:03:48.536Z,9.80
2023-03-15T15:06:21.231Z,29.60
2023-03-15T15:08:49.764Z,37.10
2023-03-15T15:11:21.926Z,27.70
2023-03-15T15:14:26.270Z,46.60
2023-03-15T15:17:00.209Z,35.70
2023-03-15T15:20:02.554Z,35.20
2023-03-15T15:22:32.249Z,51.20
2023-03-15T15:25:07.686Z,12.60
2023-03-15T15:27:39.241Z,9.90
2023-03-15T15:30:11.328Z,9.30
2023-03-15T15:32:45.785Z,12.20
2023-03-15T15:35:18.664Z,9.60
2023-03-15T15:37:48.634Z,8.80
2023-03-15T15:40:23.674Z,6.60
2023-03-15T15:43:07.399Z,6.30
2023-03-15T15:45:37.596Z,80.10
2023-03-15T15:48:10.034Z,26.70
2023-03-15T15:59:32.287Z,15.80
2023-03-15T16:02:02.587Z,12.20
2023-03-15T16:04:38.052Z,18.80
2023-03-15T16:08:36.153Z,15.90
2023-03-15T16:10:47.649Z,13.00
2023-03-15T16:13:16.827Z,7.70
2023-03-15T16:15:45.946Z,9.80
2023-03-15T16:18:17.181Z,8.50
2023-03-15T16:20:45.596Z,5.60
2023-03-15T16:23:17.259Z,9.30
2023-03-15T16:25:47.224Z,11.20
2023-03-15T16:28:15.670Z,10.60
2023-03-15T16:30:46.658Z,11.90
2023-03-15T16:35:45.854Z,49.50
2023-03-15T16:38:17.001Z,29.80
2023-03-15T16:43:16.008Z,26.90
2023-03-15T16:45:46.956Z,14.70
2023-03-15T16:48:17.068Z,18.00
2023-03-15T16:50:49.747Z,25.30
2023-03-15T16:53:24.225Z,18.60
2023-03-15T16:56:04.162Z,14.40
2023-03-15T16:58:41.388Z,37.90
2023-03-15T17:01:13.926Z,19.90
2023-03-15T17:03:47.329Z,8.30
2023-03-15T17:06:31.768Z,6.30
2023-03-15T17:09:04.992Z,5.60
2023-03-15T17:11:33.092Z,4.30
2023-03-15T17:14:23.871Z,7.70
2023-03-15T17:17:02.028Z,5.80
2023-03-15T17:19:30.949Z,8.70
2023-03-15T17:21:59.015Z,10.10
2023-03-15T17:24:32.632Z,14.00
2023-03-15T17:27:04.192Z,16.10
2023-03-15T17:29:33.180Z,10.70
2023-03-15T17:32:01.525Z,13.40
2023-03-15T17:34:35.099Z,9.20
2023-03-15T17:40:35.093Z,9.10
2023-03-15T17:43:03.638Z,17.80
2023-03-15T17:45:32.245Z,16.20
2023-03-15T17:47:59.230Z,11.70
2023-03-15T17:50:27.250Z,15.70
2023-03-15T17:53:02.070Z,12.50
2023-03-15T17:55:30.086Z,14.80
2023-03-15T17:57:56.672Z,123.10
2023-03-15T18:00:23.491Z,98.20
2023-03-15T18:02:55.655Z,108.90
2023-03-15T18:05:24.187Z,167.80
2023-03-15T18:07:58.587Z,159.50
2023-03-15T18:10:27.994Z,82.80
2023-03-15T18:12:54.510Z,63.50
2023-03-15T18:15:22.088Z,87.60
2023-03-15T18:17:50.156Z,56.50
2023-03-15T18:20:17.914Z,60.30
2023-03-15T18:22:44.758Z,59.40
2023-03-15T18:25:31.904Z,43.30
2023-03-15T18:27:58.885Z,41.00
2023-03-15T18:30:26.945Z,43.80
2023-03-15T18:32:54.045Z,1001.50
2023-03-15T18:35:25.599Z,906.80
2023-03-15T18:37:55.323Z,1015.40
2023-03-15T18:40:22.257Z,602.60
2023-03-15T18:42:49.302Z,404.40
2023-03-15T18:45:17.577Z,315.20
2023-03-15T18:47:45.186Z,169.10
2023-03-15T18:50:12.155Z,98.90
2023-03-15T18:52:39.434Z,126.50
2023-03-15T18:55:07.237Z,197.50
2023-03-15T18:57:37.151Z,230.30
2023-03-15T19:00:12.377Z,246.20
2023-03-15T19:02:44.603Z,260.70
2023-03-15T19:05:12.848Z,197.90
2023-03-15T19:07:39.743Z,188.90
2023-03-15T19:10:08.020Z,115.30
2023-03-15T19:15:14.569Z,46.30
2023-03-15T19:18:04.915Z,29.20
2023-03-15T19:20:36.146Z,24.70
2023-03-15T19:23:02.940Z,26.50
2023-03-15T19:25:41.133Z,50.70
2023-03-15T19:28:20.741Z,39.00
2023-03-15T19:30:48.827Z,33.60
2023-03-15T19:33:25.027Z,25.50
2023-03-15T19:35:55.212Z,29.90
2023-03-15T19:38:33.522Z,36.00
2023-03-15T19:41:04.350Z,58.60
2023-03-15T19:43:32.025Z,37.70
2023-03-15T19:46:03.646Z,36.30
2023-03-15T19:48:35.871Z,27.20
2023-03-15T19:51:05.715Z,23.30
2023-03-15T19:53:32.524Z,22.20
2023-03-15T19:56:03.417Z,23.30
2023-03-15T20:00:59.067Z,39.70
2023-03-15T20:03:26.042Z,51.70
2023-03-15T20:05:58.455Z,65.90
2023-03-15T20:08:26.362Z,65.50
2023-03-15T20:11:03.337Z,60.30
2023-03-15T20:13:30.898Z,45.90
2023-03-15T20:15:57.889Z,40.90
2023-03-15T20:18:27.539Z,44.70
2023-03-15T20:21:09.804Z,32.50
2023-03-15T20:23:49.618Z,24.10
2023-03-15T20:26:22.015Z,17.70
2023-03-15T20:28:49.913Z,20.00
2023-03-15T20:31:18.973Z,18.60
2023-03-15T20:33:49.241Z,14.70
2023-03-15T20:36:18.129Z,18.30
2023-03-15T20:38:48.650Z,20.10
2023-03-15T20:41:18.345Z,19.00
2023-03-15T20:43:48.581Z,22.10
2023-03-15T20:46:18.346Z,24.90
2023-03-15T20:48:48.381Z,21.50
2023-03-15T20:51:15.794Z,16.70
2023-03-15T20:53:43.321Z,21.40
2023-03-15T20:56:10.535Z,23.40
2023-03-15T20:58:37.937Z,20.90
2023-03-15T21:01:06.976Z,18.20
2023-03-15T21:03:35.629Z,18.20
2023-03-15T21:06:04.792Z,17.30
2023-03-15T21:08:33.107Z,13.40
2023-03-15T21:11:02.140Z,14.60
2023-03-15T21:13:29.921Z,9.80
2023-03-15T21:16:06.127Z,12.20
2023-03-15T21:18:44.465Z,12.60
2023-03-15T21:21:13.176Z,14.40
2023-03-15T21:23:52.928Z,14.40
2023-03-15T21:26:24.464Z,12.20
2023-03-15T21:29:02.468Z,10.60
2023-03-15T21:31:33.747Z,11.90
2023-03-15T21:34:09.973Z,13.80
2023-03-15T21:36:44.110Z,12.40
2023-03-15T21:39:42.272Z,9.80
2023-03-15T21:42:14.159Z,10.10
2023-03-15T21:44:43.389Z,12.20
2023-03-15T21:47:14.552Z,11.00
2023-03-15T21:49:47.690Z,13.30
2023-03-15T21:52:26.209Z,14.50
2023-03-15T21:54:58.031Z,10.10
2023-03-15T21:57:27.863Z,10.20
2023-03-15T21:59:57.766Z,10.50
2023-03-15T22:02:50.098Z,10.80
2023-03-15T22:05:23.021Z,12.20
2023-03-15T22:08:08.155Z,10.20
2023-03-15T22:10:53.338Z,11.80
2023-03-15T22:14:01.335Z,6.70
2023-03-15T22:16:39.291Z,9.70
2023-03-15T22:19:17.250Z,12.00
2023-03-15T22:25:00.794Z,9.70
2023-03-15T22:28:32.153Z,10.80
2023-03-15T22:31:27.162Z,8.40
2023-03-15T22:34:20.152Z,10.60
2023-03-15T22:37:34.402Z,10.70
2023-03-15T22:40:22.440Z,9.90
2023-03-15T22:43:05.123Z,10.80
2023-03-15T22:45:43.944Z,9.70
2023-03-15T22:48:24.918Z,12.10
2023-03-15T22:51:07.537Z,9.60
2023-03-15T22:53:48.132Z,11.90
2023-03-15T22:56:18.259Z,11.60
2023-03-15T22:58:50.558Z,7.20
2023-03-15T23:01:21.369Z,12.00
2023-03-15T23:03:48.840Z,9.30
2023-03-15T23:06:16.997Z,10.00
2023-03-15T23:08:44.343Z,9.80
2023-03-15T23:11:11.531Z,8.30
2023-03-15T23:13:53.088Z,9.30
2023-03-15T23:16:20.693Z,8.60
2023-03-15T23:18:48.422Z,9.70
2023-03-15T23:21:15.780Z,8.00
2023-03-15T23:23:43.293Z,10.10
2023-03-15T23:26:12.382Z,9.00
2023-03-15T23:29:03.788Z,12.30
2023-03-15T23:31:31.376Z,9.50
2023-03-15T23:33:58.526Z,11.20
2023-03-15T23:40:08.179Z,9.90
2023-03-15T23:42:44.477Z,14.10
2023-03-15T23:45:17.883Z,15.20
2023-03-15T23:47:51.684Z,13.10
2023-03-15T23:50:25.497Z,9.70
2023-03-15T23:56:33.212Z,13.80
2023-03-15T23:59:00.468Z,10.70
